sensor_id;sensor_type;location;lat;lon;timestamp;temperature;humidity
21646;DHT22;10984;45.712;4.800;2022-11-20T00:01:33;6.60;99.90
21646;DHT22;10984;45.712;4.800;2022-11-20T00:03:59;6.70;99.90
21646;DHT22;10984;45.712;4.800;2022-11-20T00:06:26;6.70;99.90
21646;DHT22;10984;45.712;4.800;2022-11-20T00:11:39;6.80;99.90
21646;DHT22;10984;45.712;4.800;2022-11-20T00:14:04;6.90;99.90
21646;DHT22;10984;45.712;4.800;2022-11-20T00:16:31;6.90;99.90
21646;DHT22;10984;45.712;4.800;2022-11-20T00:18:57;6.90;99.90
21646;DHT22;10984;45.712;4.800;2022-11-20T00:21:25;6.90;99.90
21646;DHT22;10984;45.712;4.800;2022-11-20T00:23:53;7.00;99.90
21646;DHT22;10984;45.712;4.800;2022-11-20T00:26:20;7.00;99.90
21646;DHT22;10984;45.712;4.800;2022-11-20T00:29:04;6.90;99.90
21646;DHT22;10984;45.712;4.800;2022-11-20T00:31:30;6.90;99.90
21646;DHT22;10984;45.712;4.800;2022-11-20T00:33:56;6.90;99.90
21646;DHT22;10984;45.712;4.800;2022-11-20T00:36:25;6.90;99.90
21646;DHT22;10984;45.712;4.800;2022-11-20T00:38:52;6.80;99.90
21646;DHT22;10984;45.712;4.800;2022-11-20T00:41:18;6.80;99.90
21646;DHT22;10984;45.712;4.800;2022-11-20T00:43:44;6.70;99.90
21646;DHT22;10984;45.712;4.800;2022-11-20T00:46:13;6.70;99.90
21646;DHT22;10984;45.712;4.800;2022-11-20T00:48:39;6.50;99.90
21646;DHT22;10984;45.712;4.800;2022-11-20T00:51:05;6.40;99.90
21646;DHT22;10984;45.712;4.800;2022-11-20T00:53:31;6.20;99.90
21646;DHT22;10984;45.712;4.800;2022-11-20T00:55:59;6.10;99.90
21646;DHT22;10984;45.712;4.800;2022-11-20T00:58:28;6.10;99.90
21646;DHT22;10984;45.712;4.800;2022-11-20T01:01:03;6.00;99.90
21646;DHT22;10984;45.712;4.800;2022-11-20T01:03:31;6.00;99.90
21646;DHT22;10984;45.712;4.800;2022-11-20T01:11:46;6.30;99.90
21646;DHT22;10984;45.712;4.800;2022-11-20T01:14:16;6.30;99.90
21646;DHT22;10984;45.712;4.800;2022-11-20T01:16:44;6.30;99.90
21646;DHT22;10984;45.712;4.800;2022-11-20T01:19:14;6.30;99.90
21646;DHT22;10984;45.712;4.800;2022-11-20T01:21:41;6.30;99.90
21646;DHT22;10984;45.712;4.800;2022-11-20T01:24:10;6.20;99.90
21646;DHT22;10984;45.712;4.800;2022-11-20T01:26:38;6.10;99.90
21646;DHT22;10984;45.712;4.800;2022-11-20T01:29:05;6.00;99.90
21646;DHT22;10984;45.712;4.800;2022-11-20T01:31:33;5.90;99.90
21646;DHT22;10984;45.712;4.800;2022-11-20T01:34:01;5.90;99.90
21646;DHT22;10984;45.712;4.800;2022-11-20T01:36:29;5.80;99.90
21646;DHT22;10984;45.712;4.800;2022-11-20T01:38:57;5.80;99.90
21646;DHT22;10984;45.712;4.800;2022-11-20T01:41:25;5.80;99.90
21646;DHT22;10984;45.712;4.800;2022-11-20T01:44:12;5.80;99.90
21646;DHT22;10984;45.712;4.800;2022-11-20T01:46:42;5.70;99.90
21646;DHT22;10984;45.712;4.800;2022-11-20T01:49:35;5.70;99.90
21646;DHT22;10984;45.712;4.800;2022-11-20T01:54:58;5.80;99.90
21646;DHT22;10984;45.712;4.800;2022-11-20T01:57:27;5.80;99.90
21646;DHT22;10984;45.712;4.800;2022-11-20T02:00:02;5.90;99.90
21646;DHT22;10984;45.712;4.800;2022-11-20T02:02:28;5.90;99.90
21646;DHT22;10984;45.712;4.800;2022-11-20T02:04:57;5.90;99.90
21646;DHT22;10984;45.712;4.800;2022-11-20T02:07:26;5.90;99.90
21646;DHT22;10984;45.712;4.800;2022-11-20T02:09:53;5.90;99.90
21646;DHT22;10984;45.712;4.800;2022-11-20T02:12:19;5.80;99.90
21646;DHT22;10984;45.712;4.800;2022-11-20T02:15:03;5.80;99.90
21646;DHT22;10984;45.712;4.800;2022-11-20T02:17:29;5.70;99.90
21646;DHT22;10984;45.712;4.800;2022-11-20T02:19:55;5.70;99.90
21646;DHT22;10984;45.712;4.800;2022-11-20T02:25:24;5.60;99.90
21646;DHT22;10984;45.712;4.800;2022-11-20T02:27:51;5.50;99.90
21646;DHT22;10984;45.712;4.800;2022-11-20T02:30:17;5.50;99.90
21646;DHT22;10984;45.712;4.800;2022-11-20T02:32:43;5.50;99.90
21646;DHT22;10984;45.712;4.800;2022-11-20T02:40:40;5.50;99.90
21646;DHT22;10984;45.712;4.800;2022-11-20T02:43:06;5.60;99.90
21646;DHT22;10984;45.712;4.800;2022-11-20T02:45:33;5.60;99.90
21646;DHT22;10984;45.712;4.800;2022-11-20T02:47:58;5.70;99.90
21646;DHT22;10984;45.712;4.800;2022-11-20T02:50:24;5.70;99.90
21646;DHT22;10984;45.712;4.800;2022-11-20T02:52:50;5.70;99.90
21646;DHT22;10984;45.712;4.800;2022-11-20T02:55:15;5.70;99.90
21646;DHT22;10984;45.712;4.800;2022-11-20T02:57:41;5.80;99.90
21646;DHT22;10984;45.712;4.800;2022-11-20T03:00:07;6.00;99.90
21646;DHT22;10984;45.712;4.800;2022-11-20T03:02:33;6.00;99.90
21646;DHT22;10984;45.712;4.800;2022-11-20T03:04:59;6.10;99.90
21646;DHT22;10984;45.712;4.800;2022-11-20T03:07:25;6.20;99.90
21646;DHT22;10984;45.712;4.800;2022-11-20T03:09:50;6.30;99.90
21646;DHT22;10984;45.712;4.800;2022-11-20T03:12:16;6.40;99.90
21646;DHT22;10984;45.712;4.800;2022-11-20T03:14:42;6.40;99.90
21646;DHT22;10984;45.712;4.800;2022-11-20T03:17:07;6.40;99.90
21646;DHT22;10984;45.712;4.800;2022-11-20T03:19:33;6.50;99.90
21646;DHT22;10984;45.712;4.800;2022-11-20T03:21:59;6.50;99.90
21646;DHT22;10984;45.712;4.800;2022-11-20T03:24:25;6.50;99.90
21646;DHT22;10984;45.712;4.800;2022-11-20T03:26:51;6.50;99.90
21646;DHT22;10984;45.712;4.800;2022-11-20T03:29:16;6.60;99.90
21646;DHT22;10984;45.712;4.800;2022-11-20T03:31:42;6.60;99.90
21646;DHT22;10984;45.712;4.800;2022-11-20T03:34:09;6.60;99.90
21646;DHT22;10984;45.712;4.800;2022-11-20T03:36:41;6.60;99.90
21646;DHT22;10984;45.712;4.800;2022-11-20T03:39:07;6.70;99.90
21646;DHT22;10984;45.712;4.800;2022-11-20T03:41:37;6.70;99.90
21646;DHT22;10984;45.712;4.800;2022-11-20T03:44:05;6.60;99.90
21646;DHT22;10984;45.712;4.800;2022-11-20T03:46:31;6.60;99.90
21646;DHT22;10984;45.712;4.800;2022-11-20T03:48:57;6.60;99.90
21646;DHT22;10984;45.712;4.800;2022-11-20T03:51:25;6.60;99.90
21646;DHT22;10984;45.712;4.800;2022-11-20T03:53:53;6.60;99.90
21646;DHT22;10984;45.712;4.800;2022-11-20T03:56:23;6.50;99.90
21646;DHT22;10984;45.712;4.800;2022-11-20T03:58:49;6.50;99.90
21646;DHT22;10984;45.712;4.800;2022-11-20T04:01:17;6.50;99.90
21646;DHT22;10984;45.712;4.800;2022-11-20T04:03:44;6.50;99.90
21646;DHT22;10984;45.712;4.800;2022-11-20T04:08:40;6.30;99.90
21646;DHT22;10984;45.712;4.800;2022-11-20T04:11:25;6.20;99.90
21646;DHT22;10984;45.712;4.800;2022-11-20T04:13:53;6.20;99.90
21646;DHT22;10984;45.712;4.800;2022-11-20T04:16:20;6.10;99.90
21646;DHT22;10984;45.712;4.800;2022-11-20T04:18:46;6.00;99.90
21646;DHT22;10984;45.712;4.800;2022-11-20T04:21:12;5.90;99.90
21646;DHT22;10984;45.712;4.800;2022-11-20T04:23:39;5.80;99.90
21646;DHT22;10984;45.712;4.800;2022-11-20T04:26:06;5.80;99.90
21646;DHT22;10984;45.712;4.800;2022-11-20T04:28:32;5.80;99.90
21646;DHT22;10984;45.712;4.800;2022-11-20T04:31:18;5.80;99.90
21646;DHT22;10984;45.712;4.800;2022-11-20T04:33:44;5.80;99.90
21646;DHT22;10984;45.712;4.800;2022-11-20T04:36:28;5.80;99.90
21646;DHT22;10984;45.712;4.800;2022-11-20T04:39:13;5.90;99.90
21646;DHT22;10984;45.712;4.800;2022-11-20T04:41:40;5.90;99.90
21646;DHT22;10984;45.712;4.800;2022-11-20T04:44:06;5.90;99.90
21646;DHT22;10984;45.712;4.800;2022-11-20T04:46:38;5.90;99.90
21646;DHT22;10984;45.712;4.800;2022-11-20T04:49:04;6.00;99.90
21646;DHT22;10984;45.712;4.800;2022-11-20T04:51:31;6.00;99.90
21646;DHT22;10984;45.712;4.800;2022-11-20T04:53:56;6.00;99.90
21646;DHT22;10984;45.712;4.800;2022-11-20T04:56:22;5.90;99.90
21646;DHT22;10984;45.712;4.800;2022-11-20T04:58:48;6.00;99.90
21646;DHT22;10984;45.712;4.800;2022-11-20T05:01:17;5.90;99.90
21646;DHT22;10984;45.712;4.800;2022-11-20T05:03:43;5.70;99.90
21646;DHT22;10984;45.712;4.800;2022-11-20T05:08:55;5.60;99.90
21646;DHT22;10984;45.712;4.800;2022-11-20T05:11:21;5.60;99.90
21646;DHT22;10984;45.712;4.800;2022-11-20T05:13:47;5.60;99.90
21646;DHT22;10984;45.712;4.800;2022-11-20T05:16:21;5.70;99.90
21646;DHT22;10984;45.712;4.800;2022-11-20T05:18:47;5.70;99.90
21646;DHT22;10984;45.712;4.800;2022-11-20T05:21:14;5.80;99.90
21646;DHT22;10984;45.712;4.800;2022-11-20T05:23:40;5.90;99.90
21646;DHT22;10984;45.712;4.800;2022-11-20T05:26:08;5.90;99.90
21646;DHT22;10984;45.712;4.800;2022-11-20T05:28:36;5.90;99.90
21646;DHT22;10984;45.712;4.800;2022-11-20T05:31:21;5.90;99.90
21646;DHT22;10984;45.712;4.800;2022-11-20T05:33:47;6.00;99.90
21646;DHT22;10984;45.712;4.800;2022-11-20T05:36:14;6.00;99.90
21646;DHT22;10984;45.712;4.800;2022-11-20T05:38:41;6.10;99.90
21646;DHT22;10984;45.712;4.800;2022-11-20T05:43:53;6.10;99.90
21646;DHT22;10984;45.712;4.800;2022-11-20T05:46:20;6.20;99.90
21646;DHT22;10984;45.712;4.800;2022-11-20T05:48:46;6.20;99.90
21646;DHT22;10984;45.712;4.800;2022-11-20T05:51:15;6.20;99.90
21646;DHT22;10984;45.712;4.800;2022-11-20T05:53:41;6.30;99.90
21646;DHT22;10984;45.712;4.800;2022-11-20T05:56:10;6.30;99.90
21646;DHT22;10984;45.712;4.800;2022-11-20T05:58:36;6.30;99.90
21646;DHT22;10984;45.712;4.800;2022-11-20T06:01:22;6.30;99.90
21646;DHT22;10984;45.712;4.800;2022-11-20T06:03:48;6.40;99.90
21646;DHT22;10984;45.712;4.800;2022-11-20T06:06:16;6.40;99.90
21646;DHT22;10984;45.712;4.800;2022-11-20T06:08:43;6.40;99.90
21646;DHT22;10984;45.712;4.800;2022-11-20T06:11:10;6.40;99.90
21646;DHT22;10984;45.712;4.800;2022-11-20T06:13:36;6.40;99.90
21646;DHT22;10984;45.712;4.800;2022-11-20T06:16:03;6.40;99.90
21646;DHT22;10984;45.712;4.800;2022-11-20T06:18:29;6.40;99.90
21646;DHT22;10984;45.712;4.800;2022-11-20T06:21:15;6.50;99.90
21646;DHT22;10984;45.712;4.800;2022-11-20T06:23:41;6.50;99.90
21646;DHT22;10984;45.712;4.800;2022-11-20T06:26:09;6.50;99.90
21646;DHT22;10984;45.712;4.800;2022-11-20T06:28:35;6.50;99.90
21646;DHT22;10984;45.712;4.800;2022-11-20T06:31:00;6.50;99.90
21646;DHT22;10984;45.712;4.800;2022-11-20T06:33:26;6.50;99.90
21646;DHT22;10984;45.712;4.800;2022-11-20T06:35:55;6.60;99.90
21646;DHT22;10984;45.712;4.800;2022-11-20T06:38:21;6.50;99.90
21646;DHT22;10984;45.712;4.800;2022-11-20T06:40:47;6.50;99.90
21646;DHT22;10984;45.712;4.800;2022-11-20T06:43:12;6.50;99.90
21646;DHT22;10984;45.712;4.800;2022-11-20T06:45:38;6.50;99.90
21646;DHT22;10984;45.712;4.800;2022-11-20T06:48:04;6.50;99.90
21646;DHT22;10984;45.712;4.800;2022-11-20T06:50:30;6.50;99.90
21646;DHT22;10984;45.712;4.800;2022-11-20T06:52:55;6.50;99.90
21646;DHT22;10984;45.712;4.800;2022-11-20T06:55:21;6.40;99.90
21646;DHT22;10984;45.712;4.800;2022-11-20T06:57:46;6.40;99.90
21646;DHT22;10984;45.712;4.800;2022-11-20T07:00:13;6.50;99.90
21646;DHT22;10984;45.712;4.800;2022-11-20T07:02:39;6.50;99.90
21646;DHT22;10984;45.712;4.800;2022-11-20T07:05:04;6.50;99.90
21646;DHT22;10984;45.712;4.800;2022-11-20T07:07:30;6.50;99.90
21646;DHT22;10984;45.712;4.800;2022-11-20T07:09:56;6.60;99.90
21646;DHT22;10984;45.712;4.800;2022-11-20T07:12:21;6.70;99.90
21646;DHT22;10984;45.712;4.800;2022-11-20T07:14:47;6.70;99.90
21646;DHT22;10984;45.712;4.800;2022-11-20T07:17:12;6.80;99.90
21646;DHT22;10984;45.712;4.800;2022-11-20T07:19:38;6.90;99.90
21646;DHT22;10984;45.712;4.800;2022-11-20T07:22:04;6.90;99.90
21646;DHT22;10984;45.712;4.800;2022-11-20T07:24:30;6.90;99.90
21646;DHT22;10984;45.712;4.800;2022-11-20T07:26:55;7.00;99.90
21646;DHT22;10984;45.712;4.800;2022-11-20T07:29:21;7.10;99.90
21646;DHT22;10984;45.712;4.800;2022-11-20T07:31:47;7.10;99.90
21646;DHT22;10984;45.712;4.800;2022-11-20T07:34:12;7.20;99.90
21646;DHT22;10984;45.712;4.800;2022-11-20T07:36:38;7.30;99.90
21646;DHT22;10984;45.712;4.800;2022-11-20T07:39:04;7.30;99.90
21646;DHT22;10984;45.712;4.800;2022-11-20T07:41:30;7.50;99.90
21646;DHT22;10984;45.712;4.800;2022-11-20T07:43:55;7.50;99.90
21646;DHT22;10984;45.712;4.800;2022-11-20T07:46:21;7.70;99.90
21646;DHT22;10984;45.712;4.800;2022-11-20T07:48:46;7.80;99.90
21646;DHT22;10984;45.712;4.800;2022-11-20T07:51:12;7.90;99.90
21646;DHT22;10984;45.712;4.800;2022-11-20T07:53:39;8.00;99.90
21646;DHT22;10984;45.712;4.800;2022-11-20T07:56:04;8.10;99.90
21646;DHT22;10984;45.712;4.800;2022-11-20T07:58:31;8.20;99.90
21646;DHT22;10984;45.712;4.800;2022-11-20T08:03:42;8.50;99.90
21646;DHT22;10984;45.712;4.800;2022-11-20T08:06:08;8.60;99.90
21646;DHT22;10984;45.712;4.800;2022-11-20T08:08:34;8.80;99.90
21646;DHT22;10984;45.712;4.800;2022-11-20T08:11:00;8.90;99.90
21646;DHT22;10984;45.712;4.800;2022-11-20T08:13:45;9.00;99.90
21646;DHT22;10984;45.712;4.800;2022-11-20T08:16:29;9.00;99.90
21646;DHT22;10984;45.712;4.800;2022-11-20T08:18:55;9.20;99.90
21646;DHT22;10984;45.712;4.800;2022-11-20T08:21:21;9.30;99.90
21646;DHT22;10984;45.712;4.800;2022-11-20T08:23:47;9.40;99.90
21646;DHT22;10984;45.712;4.800;2022-11-20T08:26:12;9.50;99.90
21646;DHT22;10984;45.712;4.800;2022-11-20T08:28:38;9.60;99.90
21646;DHT22;10984;45.712;4.800;2022-11-20T08:31:04;9.70;99.90
21646;DHT22;10984;45.712;4.800;2022-11-20T08:33:30;9.80;99.90
21646;DHT22;10984;45.712;4.800;2022-11-20T08:36:16;9.90;99.90
21646;DHT22;10984;45.712;4.800;2022-11-20T08:38:46;10.00;99.90
21646;DHT22;10984;45.712;4.800;2022-11-20T08:41:11;9.90;99.90
21646;DHT22;10984;45.712;4.800;2022-11-20T08:44:14;9.90;99.90
21646;DHT22;10984;45.712;4.800;2022-11-20T08:46:41;9.80;99.90
21646;DHT22;10984;45.712;4.800;2022-11-20T08:49:10;9.80;99.90
21646;DHT22;10984;45.712;4.800;2022-11-20T08:51:37;9.70;99.90
21646;DHT22;10984;45.712;4.800;2022-11-20T08:54:03;9.60;99.90
21646;DHT22;10984;45.712;4.800;2022-11-20T08:56:29;9.70;99.90
21646;DHT22;10984;45.712;4.800;2022-11-20T08:58:55;9.70;99.90
21646;DHT22;10984;45.712;4.800;2022-11-20T09:04:08;9.80;99.90
21646;DHT22;10984;45.712;4.800;2022-11-20T09:06:34;9.80;99.90
21646;DHT22;10984;45.712;4.800;2022-11-20T09:09:00;9.90;99.90
21646;DHT22;10984;45.712;4.800;2022-11-20T09:11:25;9.90;99.90
21646;DHT22;10984;45.712;4.800;2022-11-20T09:13:51;9.80;99.90
21646;DHT22;10984;45.712;4.800;2022-11-20T09:16:17;9.90;99.90
21646;DHT22;10984;45.712;4.800;2022-11-20T09:18:43;9.90;99.90
21646;DHT22;10984;45.712;4.800;2022-11-20T09:21:12;10.00;99.90
21646;DHT22;10984;45.712;4.800;2022-11-20T09:23:39;10.00;99.90
21646;DHT22;10984;45.712;4.800;2022-11-20T09:26:06;10.10;99.90
21646;DHT22;10984;45.712;4.800;2022-11-20T09:28:32;10.00;99.90
21646;DHT22;10984;45.712;4.800;2022-11-20T09:30:59;10.00;99.90
21646;DHT22;10984;45.712;4.800;2022-11-20T09:33:25;9.80;99.90
21646;DHT22;10984;45.712;4.800;2022-11-20T09:35:50;9.90;99.90
21646;DHT22;10984;45.712;4.800;2022-11-20T09:38:16;10.00;99.90
21646;DHT22;10984;45.712;4.800;2022-11-20T09:55:25;10.60;99.90
21646;DHT22;10984;45.712;4.800;2022-11-20T09:57:52;10.50;99.90
21646;DHT22;10984;45.712;4.800;2022-11-20T10:00:19;10.30;99.90
21646;DHT22;10984;45.712;4.800;2022-11-20T10:06:12;10.10;99.90
21646;DHT22;10984;45.712;4.800;2022-11-20T10:14:23;9.80;99.90
21646;DHT22;10984;45.712;4.800;2022-11-20T10:25:26;9.80;99.90
21646;DHT22;10984;45.712;4.800;2022-11-20T10:31:25;9.70;99.90
21646;DHT22;10984;45.712;4.800;2022-11-20T10:33:54;9.70;99.90
21646;DHT22;10984;45.712;4.800;2022-11-20T10:36:42;9.70;99.90
21646;DHT22;10984;45.712;4.800;2022-11-20T10:42:17;9.70;99.90
21646;DHT22;10984;45.712;4.800;2022-11-20T10:47:44;9.60;99.90
21646;DHT22;10984;45.712;4.800;2022-11-20T10:53:42;9.70;99.90
21646;DHT22;10984;45.712;4.800;2022-11-20T10:56:30;9.70;99.90
21646;DHT22;10984;45.712;4.800;2022-11-20T11:01:28;9.80;99.90
21646;DHT22;10984;45.712;4.800;2022-11-20T11:03:55;9.80;99.90
21646;DHT22;10984;45.712;4.800;2022-11-20T11:06:40;9.80;99.90
21646;DHT22;10984;45.712;4.800;2022-11-20T11:09:30;9.80;99.90
21646;DHT22;10984;45.712;4.800;2022-11-20T11:11:57;9.80;99.90
21646;DHT22;10984;45.712;4.800;2022-11-20T11:14:23;9.90;99.90
21646;DHT22;10984;45.712;4.800;2022-11-20T11:17:17;9.90;99.90
21646;DHT22;10984;45.712;4.800;2022-11-20T11:19:43;9.90;99.90
21646;DHT22;10984;45.712;4.800;2022-11-20T11:22:16;9.90;99.90
21646;DHT22;10984;45.712;4.800;2022-11-20T11:24:52;9.90;99.90
21646;DHT22;10984;45.712;4.800;2022-11-20T11:27:18;9.90;99.90
21646;DHT22;10984;45.712;4.800;2022-11-20T11:29:44;9.90;99.90
21646;DHT22;10984;45.712;4.800;2022-11-20T11:32:29;10.00;99.90
21646;DHT22;10984;45.712;4.800;2022-11-20T11:38:17;10.00;99.90
21646;DHT22;10984;45.712;4.800;2022-11-20T11:40:44;10.00;99.90
21646;DHT22;10984;45.712;4.800;2022-11-20T11:43:31;10.00;99.90
21646;DHT22;10984;45.712;4.800;2022-11-20T11:46:35;10.00;99.90
21646;DHT22;10984;45.712;4.800;2022-11-20T11:49:20;10.00;99.90
21646;DHT22;10984;45.712;4.800;2022-11-20T11:52:08;10.00;99.90
21646;DHT22;10984;45.712;4.800;2022-11-20T12:03:57;9.90;99.90
21646;DHT22;10984;45.712;4.800;2022-11-20T12:06:25;10.00;99.90
21646;DHT22;10984;45.712;4.800;2022-11-20T12:08:57;10.00;99.90
21646;DHT22;10984;45.712;4.800;2022-11-20T12:16:52;10.20;99.90
21646;DHT22;10984;45.712;4.800;2022-11-20T12:19:19;10.20;99.90
21646;DHT22;10984;45.712;4.800;2022-11-20T12:30:41;10.20;99.90
21646;DHT22;10984;45.712;4.800;2022-11-20T12:33:36;10.30;99.90
21646;DHT22;10984;45.712;4.800;2022-11-20T12:39:32;10.30;99.90
21646;DHT22;10984;45.712;4.800;2022-11-20T13:00:15;10.30;99.90
21646;DHT22;10984;45.712;4.800;2022-11-20T13:08:41;10.20;99.90
21646;DHT22;10984;45.712;4.800;2022-11-20T13:19:25;10.10;99.90
21646;DHT22;10984;45.712;4.800;2022-11-20T13:21:53;10.10;99.90
21646;DHT22;10984;45.712;4.800;2022-11-20T13:26:45;10.20;99.90
21646;DHT22;10984;45.712;4.800;2022-11-20T13:32:16;10.10;99.90
21646;DHT22;10984;45.712;4.800;2022-11-20T13:35:02;10.10;99.90
21646;DHT22;10984;45.712;4.800;2022-11-20T13:37:47;10.10;99.90
21646;DHT22;10984;45.712;4.800;2022-11-20T13:40:20;10.10;99.90
21646;DHT22;10984;45.712;4.800;2022-11-20T13:45:36;10.00;99.90
21646;DHT22;10984;45.712;4.800;2022-11-20T14:02:40;9.80;99.90
21646;DHT22;10984;45.712;4.800;2022-11-20T14:05:18;9.80;99.90
21646;DHT22;10984;45.712;4.800;2022-11-20T14:07:45;9.80;99.90
21646;DHT22;10984;45.712;4.800;2022-11-20T14:10:29;9.80;99.90
21646;DHT22;10984;45.712;4.800;2022-11-20T14:12:55;9.70;99.90
21646;DHT22;10984;45.712;4.800;2022-11-20T14:15:40;9.70;99.90
21646;DHT22;10984;45.712;4.800;2022-11-20T14:18:25;9.60;99.90
21646;DHT22;10984;45.712;4.800;2022-11-20T14:20:51;9.50;99.90
21646;DHT22;10984;45.712;4.800;2022-11-20T14:23:35;9.50;99.90
21646;DHT22;10984;45.712;4.800;2022-11-20T14:26:01;9.40;99.90
21646;DHT22;10984;45.712;4.800;2022-11-20T14:28:29;9.30;99.90
21646;DHT22;10984;45.712;4.800;2022-11-20T14:30:56;9.30;99.90
21646;DHT22;10984;45.712;4.800;2022-11-20T14:33:23;9.20;99.90
21646;DHT22;10984;45.712;4.800;2022-11-20T14:36:15;9.20;99.90
21646;DHT22;10984;45.712;4.800;2022-11-20T14:38:41;9.20;99.90
21646;DHT22;10984;45.712;4.800;2022-11-20T14:41:14;9.30;99.90
21646;DHT22;10984;45.712;4.800;2022-11-20T14:43:45;9.40;99.90
21646;DHT22;10984;45.712;4.800;2022-11-20T14:46:12;9.50;99.90
21646;DHT22;10984;45.712;4.800;2022-11-20T14:48:43;9.60;99.90
21646;DHT22;10984;45.712;4.800;2022-11-20T14:51:38;9.70;99.90
21646;DHT22;10984;45.712;4.800;2022-11-20T14:54:25;9.80;99.90
21646;DHT22;10984;45.712;4.800;2022-11-20T14:57:20;9.90;99.90
21646;DHT22;10984;45.712;4.800;2022-11-20T14:59:45;9.90;99.90
21646;DHT22;10984;45.712;4.800;2022-11-20T15:02:12;10.00;99.90
21646;DHT22;10984;45.712;4.800;2022-11-20T15:04:57;10.00;99.90
21646;DHT22;10984;45.712;4.800;2022-11-20T15:07:44;10.00;99.90
21646;DHT22;10984;45.712;4.800;2022-11-20T15:10:29;10.10;99.90
21646;DHT22;10984;45.712;4.800;2022-11-20T15:15:59;10.20;99.90
21646;DHT22;10984;45.712;4.800;2022-11-20T15:18:44;10.20;99.90
21646;DHT22;10984;45.712;4.800;2022-11-20T15:21:12;10.20;99.90
21646;DHT22;10984;45.712;4.800;2022-11-20T15:23:38;10.20;99.90
21646;DHT22;10984;45.712;4.800;2022-11-20T15:26:24;10.20;99.90
21646;DHT22;10984;45.712;4.800;2022-11-20T15:28:50;10.20;99.90
21646;DHT22;10984;45.712;4.800;2022-11-20T15:31:18;10.10;99.90
21646;DHT22;10984;45.712;4.800;2022-11-20T15:33:44;10.00;99.90
21646;DHT22;10984;45.712;4.800;2022-11-20T15:36:10;10.00;99.90
21646;DHT22;10984;45.712;4.800;2022-11-20T15:38:36;9.90;99.90
21646;DHT22;10984;45.712;4.800;2022-11-20T15:41:02;9.80;99.90
21646;DHT22;10984;45.712;4.800;2022-11-20T15:43:28;9.80;99.90
21646;DHT22;10984;45.712;4.800;2022-11-20T15:45:59;9.70;99.90
21646;DHT22;10984;45.712;4.800;2022-11-20T15:48:44;9.70;99.90
21646;DHT22;10984;45.712;4.800;2022-11-20T15:53:40;9.50;99.90
21646;DHT22;10984;45.712;4.800;2022-11-20T15:56:11;9.50;99.90
21646;DHT22;10984;45.712;4.800;2022-11-20T15:58:38;9.50;99.90
21646;DHT22;10984;45.712;4.800;2022-11-20T16:01:03;9.40;99.90
21646;DHT22;10984;45.712;4.800;2022-11-20T16:03:29;9.30;99.90
21646;DHT22;10984;45.712;4.800;2022-11-20T16:05:55;9.30;99.90
21646;DHT22;10984;45.712;4.800;2022-11-20T16:08:21;9.30;99.90
21646;DHT22;10984;45.712;4.800;2022-11-20T16:10:46;9.30;99.90
21646;DHT22;10984;45.712;4.800;2022-11-20T16:13:31;9.30;99.90
21646;DHT22;10984;45.712;4.800;2022-11-20T16:16:35;9.30;99.90
21646;DHT22;10984;45.712;4.800;2022-11-20T16:19:01;9.20;99.90
21646;DHT22;10984;45.712;4.800;2022-11-20T16:21:27;9.20;99.90
21646;DHT22;10984;45.712;4.800;2022-11-20T16:23:58;9.20;99.90
21646;DHT22;10984;45.712;4.800;2022-11-20T16:26:24;9.10;99.90
21646;DHT22;10984;45.712;4.800;2022-11-20T16:28:49;9.10;99.90
21646;DHT22;10984;45.712;4.800;2022-11-20T16:31:17;9.10;99.90
21646;DHT22;10984;45.712;4.800;2022-11-20T16:36:33;9.10;99.90
21646;DHT22;10984;45.712;4.800;2022-11-20T16:39:00;9.00;99.90
21646;DHT22;10984;45.712;4.800;2022-11-20T16:41:32;9.00;99.90
21646;DHT22;10984;45.712;4.800;2022-11-20T16:44:00;9.00;99.90
21646;DHT22;10984;45.712;4.800;2022-11-20T16:49:12;8.90;99.90
21646;DHT22;10984;45.712;4.800;2022-11-20T16:51:39;9.00;99.90
21646;DHT22;10984;45.712;4.800;2022-11-20T16:54:06;8.90;99.90
21646;DHT22;10984;45.712;4.800;2022-11-20T16:56:32;8.90;99.90
21646;DHT22;10984;45.712;4.800;2022-11-20T16:58:58;8.90;99.90
21646;DHT22;10984;45.712;4.800;2022-11-20T17:01:25;8.90;99.90
21646;DHT22;10984;45.712;4.800;2022-11-20T17:03:55;9.00;99.90
21646;DHT22;10984;45.712;4.800;2022-11-20T17:06:23;8.90;99.90
21646;DHT22;10984;45.712;4.800;2022-11-20T17:08:49;9.00;99.90
21646;DHT22;10984;45.712;4.800;2022-11-20T17:11:16;9.00;99.90
21646;DHT22;10984;45.712;4.800;2022-11-20T17:13:43;9.00;99.90
21646;DHT22;10984;45.712;4.800;2022-11-20T17:18:56;9.00;99.90
21646;DHT22;10984;45.712;4.800;2022-11-20T17:21:22;8.90;99.90
21646;DHT22;10984;45.712;4.800;2022-11-20T17:23:48;8.80;99.90
21646;DHT22;10984;45.712;4.800;2022-11-20T17:26:16;8.70;99.90
21646;DHT22;10984;45.712;4.800;2022-11-20T17:28:43;8.60;99.90
21646;DHT22;10984;45.712;4.800;2022-11-20T17:31:11;8.50;99.90
21646;DHT22;10984;45.712;4.800;2022-11-20T17:33:39;8.40;99.90
21646;DHT22;10984;45.712;4.800;2022-11-20T17:36:07;8.40;99.90
21646;DHT22;10984;45.712;4.800;2022-11-20T17:38:33;8.40;99.90
21646;DHT22;10984;45.712;4.800;2022-11-20T17:41:19;8.40;99.90
21646;DHT22;10984;45.712;4.800;2022-11-20T17:43:47;8.50;99.90
21646;DHT22;10984;45.712;4.800;2022-11-20T17:46:18;8.50;99.90
21646;DHT22;10984;45.712;4.800;2022-11-20T17:48:45;8.50;99.90
21646;DHT22;10984;45.712;4.800;2022-11-20T17:51:16;8.50;99.90
21646;DHT22;10984;45.712;4.800;2022-11-20T17:53:45;8.60;99.90
21646;DHT22;10984;45.712;4.800;2022-11-20T17:56:11;8.60;99.90
21646;DHT22;10984;45.712;4.800;2022-11-20T17:58:56;8.60;99.90
21646;DHT22;10984;45.712;4.800;2022-11-20T18:01:22;8.70;99.90
21646;DHT22;10984;45.712;4.800;2022-11-20T18:03:48;8.70;99.90
21646;DHT22;10984;45.712;4.800;2022-11-20T18:09:01;8.70;99.90
21646;DHT22;10984;45.712;4.800;2022-11-20T18:11:30;8.80;99.90
21646;DHT22;10984;45.712;4.800;2022-11-20T18:13:59;8.80;99.90
21646;DHT22;10984;45.712;4.800;2022-11-20T18:19:47;8.70;99.90
21646;DHT22;10984;45.712;4.800;2022-11-20T18:22:16;8.70;99.90
21646;DHT22;10984;45.712;4.800;2022-11-20T18:24:42;8.70;99.90
21646;DHT22;10984;45.712;4.800;2022-11-20T18:27:13;8.70;99.90
21646;DHT22;10984;45.712;4.800;2022-11-20T18:29:39;8.70;99.90
21646;DHT22;10984;45.712;4.800;2022-11-20T18:32:05;8.70;99.90
21646;DHT22;10984;45.712;4.800;2022-11-20T18:34:31;8.70;99.90
21646;DHT22;10984;45.712;4.800;2022-11-20T18:36:57;8.60;99.90
21646;DHT22;10984;45.712;4.800;2022-11-20T18:39:22;8.60;99.90
21646;DHT22;10984;45.712;4.800;2022-11-20T18:41:48;8.70;99.90
21646;DHT22;10984;45.712;4.800;2022-11-20T18:44:32;8.60;99.90
21646;DHT22;10984;45.712;4.800;2022-11-20T18:50:05;8.60;99.90
21646;DHT22;10984;45.712;4.800;2022-11-20T18:52:33;8.60;99.90
21646;DHT22;10984;45.712;4.800;2022-11-20T18:55:00;8.60;99.90
21646;DHT22;10984;45.712;4.800;2022-11-20T18:57:28;8.60;99.90
21646;DHT22;10984;45.712;4.800;2022-11-20T18:59:54;8.60;99.90
21646;DHT22;10984;45.712;4.800;2022-11-20T19:02:21;8.60;99.90
21646;DHT22;10984;45.712;4.800;2022-11-20T19:04:47;8.50;99.90
21646;DHT22;10984;45.712;4.800;2022-11-20T19:07:13;8.50;99.90
21646;DHT22;10984;45.712;4.800;2022-11-20T19:09:41;8.50;99.90